Time;durP1;ratioP1;P1;durP2;ratioP2;P2;SDS_P1;SDS_P2;PMS_P1;PMS_P2;Temp;Humidity;BMP_temperature;BMP_pressure;BME280_temperature;BME280_humidity;BME280_pressure;Samples;Min_cycle;Max_cycle;Signal;HPM_P1;HPM_P2
2022/02/15 00:01:14;;;;;;;15.80;7.90;;;;;;;-1.31;67.44;100318.80;109104;1277;137394;-58
2022/02/15 00:03:43;;;;;;;21.30;8.40;;;;;;;-1.33;67.44;100321.61;109213;1277;23293;-58
2022/02/15 00:06:10;;;;;;;17.90;8.30;;;;;;;-1.33;67.52;100322.61;109215;1277;22564;-57
2022/02/15 00:08:38;;;;;;;17.60;9.30;;;;;;;-1.33;67.37;100320.06;109068;1277;138516;-57
2022/02/15 00:11:07;;;;;;;14.40;7.10;;;;;;;-1.34;67.49;100320.13;109230;1277;22240;-58
2022/02/15 00:13:35;;;;;;;16.40;7.10;;;;;;;-1.32;67.60;100315.02;109085;1277;139284;-58
2022/02/15 00:16:04;;;;;;;16.40;8.20;;;;;;;-1.31;67.54;100312.94;109207;1277;22420;-58
2022/02/15 00:18:32;;;;;;;16.70;7.80;;;;;;;-1.29;67.66;100311.11;109064;1277;138069;-58
2022/02/15 00:21:01;;;;;;;18.50;8.70;;;;;;;-1.30;67.54;100312.05;109204;1277;22448;-58
2022/02/15 00:23:29;;;;;;;17.30;8.40;;;;;;;-1.29;67.67;100308.40;109192;1277;23424;-58
2022/02/15 00:25:57;;;;;;;21.30;9.20;;;;;;;-1.29;67.55;100304.61;109097;1276;138241;-58
2022/02/15 00:28:25;;;;;;;23.70;10.20;;;;;;;-1.30;67.78;100302.44;109224;1277;22468;-57
2022/02/15 00:30:53;;;;;;;15.90;8.20;;;;;;;-1.30;67.62;100303.90;109097;1277;139043;-58
2022/02/15 00:33:21;;;;;;;20.90;10.40;;;;;;;-1.32;67.41;100301.09;109209;1277;23325;-58
2022/02/15 00:35:49;;;;;;;15.90;8.30;;;;;;;-1.34;67.69;100301.78;109208;1277;22548;-58
2022/02/15 00:38:17;;;;;;;17.30;8.90;;;;;;;-1.36;67.51;100300.30;109026;1277;137097;-58
2022/02/15 00:40:45;;;;;;;16.60;9.00;;;;;;;-1.39;67.71;100296.25;109135;1277;22381;-59
2022/02/15 00:43:13;;;;;;;23.50;9.20;;;;;;;-1.41;67.74;100297.70;108960;1277;138917;-58
2022/02/15 00:45:42;;;;;;;16.90;9.10;;;;;;;-1.43;67.91;100294.70;109206;1276;22398;-58
2022/02/15 00:48:10;;;;;;;21.80;10.40;;;;;;;-1.45;67.89;100297.04;109162;1277;23578;-58
2022/02/15 00:50:38;;;;;;;18.50;9.70;;;;;;;-1.47;67.96;100293.20;109006;1277;137944;-58
2022/02/15 00:53:06;;;;;;;17.40;7.90;;;;;;;-1.48;67.94;100297.60;109138;1277;22532;-58
2022/02/15 00:55:35;;;;;;;14.40;7.60;;;;;;;-1.49;68.09;100291.81;109042;1277;137531;-58
2022/02/15 00:58:03;;;;;;;12.20;7.10;;;;;;;-1.49;68.05;100287.70;109141;1277;22537;-58
2022/02/15 01:00:31;;;;;;;12.20;6.80;;;;;;;-1.49;68.08;100292.48;108894;1277;138983;-58
2022/02/15 01:02:59;;;;;;;12.10;6.60;;;;;;;-1.49;68.18;100289.51;109092;1276;22430;-58
2022/02/15 01:05:27;;;;;;;11.60;5.60;;;;;;;-1.48;68.19;100289.19;109127;1277;22531;-59
2022/02/15 01:08:51;;;;;;;12.30;7.30;;;;;;;-1.46;68.35;100294.40;109019;1277;138813;-58
2022/02/15 01:11:19;;;;;;;10.60;5.90;;;;;;;-1.44;68.46;100294.95;109193;1277;22488;-58
2022/02/15 01:13:48;;;;;;;10.20;5.80;;;;;;;-1.42;68.32;100293.48;109099;1277;137923;-59
2022/02/15 01:16:17;;;;;;;11.00;6.20;;;;;;;-1.40;68.37;100288.42;109235;1277;22457;-59
2022/02/15 01:18:45;;;;;;;12.70;6.60;;;;;;;-1.38;68.63;100288.39;109061;1277;137332;-58
2022/02/15 01:21:13;;;;;;;10.70;5.90;;;;;;;-1.38;68.55;100284.95;109224;1277;22462;-58
2022/02/15 01:23:43;;;;;;;10.10;6.30;;;;;;;-1.37;68.28;100281.66;109256;1276;22445;-59
2022/02/15 01:26:11;;;;;;;13.80;6.40;;;;;;;-1.38;68.55;100277.98;109087;1277;138083;-58
2022/02/15 01:28:39;;;;;;;10.70;5.70;;;;;;;-1.34;68.49;100279.00;109242;1277;22638;-58
2022/02/15 01:31:08;;;;;;;10.40;5.40;;;;;;;-1.33;68.30;100282.11;109085;1277;139102;-59
2022/02/15 01:33:36;;;;;;;10.90;5.60;;;;;;;-1.35;68.20;100276.79;109164;1277;22511;-58
2022/02/15 01:36:05;;;;;;;13.60;6.50;;;;;;;-1.33;68.53;100280.27;109190;1277;22465;-58
2022/02/15 01:38:33;;;;;;;10.50;6.00;;;;;;;-1.33;68.62;100278.40;109231;1276;136936;-58
2022/02/15 01:41:01;;;;;;;13.80;6.30;;;;;;;-1.34;68.59;100272.76;109251;1277;22498;-58
2022/02/15 01:43:37;;;;;;;9.60;5.90;;;;;;;-1.34;68.58;100272.81;109192;1276;138110;-58
2022/02/15 01:46:07;;;;;;;11.30;6.10;;;;;;;-1.34;68.53;100274.26;109102;1277;22512;-58
2022/02/15 01:48:36;;;;;;;13.80;7.50;;;;;;;-1.35;68.72;100272.38;109091;1277;138133;-58
2022/02/15 01:51:04;;;;;;;16.90;6.60;;;;;;;-1.37;68.84;100273.40;109314;1276;22486;-58
2022/02/15 01:53:32;;;;;;;10.60;6.00;;;;;;;-1.37;68.82;100274.03;109320;1276;22249;-58
2022/02/15 01:56:00;;;;;;;11.70;5.80;;;;;;;-1.37;68.81;100275.81;109185;1276;139150;-58
2022/02/15 01:58:33;;;;;;;15.50;6.60;;;;;;;-1.37;68.92;100275.58;109166;1277;22481;-58
2022/02/15 02:01:05;;;;;;;15.30;6.40;;;;;;;-1.35;69.18;100273.58;109116;1277;139248;-58
2022/02/15 02:03:37;;;;;;;15.90;7.70;;;;;;;-1.34;69.06;100273.32;109158;1277;22520;-59
2022/02/15 02:06:06;;;;;;;15.10;6.80;;;;;;;-1.32;69.11;100272.40;109147;1277;22443;-58
2022/02/15 02:08:34;;;;;;;11.80;6.40;;;;;;;-1.30;69.23;100277.10;109233;1276;137286;-58
2022/02/15 02:11:03;;;;;;;12.20;6.70;;;;;;;-1.27;69.28;100272.91;109292;1276;22507;-58
2022/02/15 02:13:49;;;;;;;11.30;5.90;;;;;;;-1.25;69.16;100273.60;109213;1276;137085;-59
2022/02/15 02:16:17;;;;;;;10.10;6.20;;;;;;;-1.25;69.24;100274.63;109064;1277;22469;-58
2022/02/15 02:18:51;;;;;;;12.60;5.50;;;;;;;-1.25;69.06;100274.94;109162;1276;138678;-59
2022/02/15 02:21:33;;;;;;;9.20;5.40;;;;;;;-1.25;69.06;100278.91;109220;1277;22558;-59
2022/02/15 02:24:01;;;;;;;12.60;6.00;;;;;;;-1.25;69.35;100280.48;109221;1277;22635;-59
2022/02/15 02:26:29;;;;;;;14.70;6.40;;;;;;;-1.26;69.35;100277.20;109112;1276;138673;-58
2022/02/15 02:28:57;;;;;;;9.30;5.60;;;;;;;-1.27;69.26;100274.85;109193;1277;22475;-58
2022/02/15 02:31:29;;;;;;;11.80;6.20;;;;;;;-1.29;69.28;100276.31;109096;1277;138084;-58
2022/02/15 02:34:10;;;;;;;13.30;5.40;;;;;;;-1.31;69.31;100269.92;109183;1276;23769;-58
2022/02/15 02:36:45;;;;;;;11.60;5.80;;;;;;;-1.32;69.18;100270.92;109097;1276;138612;-58
2022/02/15 02:39:15;;;;;;;14.80;6.40;;;;;;;-1.32;69.52;100269.02;109030;1276;25331;-58
2022/02/15 02:41:44;;;;;;;10.10;5.80;;;;;;;-1.33;69.36;100269.95;104856;1278;23105;-58
2022/02/15 02:44:12;;;;;;;12.50;5.40;;;;;;;-1.33;69.08;100265.71;109000;1277;138913;-58
2022/02/15 02:46:40;;;;;;;10.80;6.50;;;;;;;-1.33;69.28;100262.80;109188;1277;22506;-58
2022/02/15 02:49:08;;;;;;;9.90;5.60;;;;;;;-1.31;69.29;100266.08;109098;1277;139206;-58
2022/02/15 02:51:38;;;;;;;8.10;4.70;;;;;;;-1.29;69.32;100267.27;109261;1276;22476;-58
2022/02/15 02:54:07;;;;;;;10.10;5.60;;;;;;;-1.28;69.20;100266.97;109287;1276;22469;-58
2022/02/15 02:56:39;;;;;;;10.20;6.00;;;;;;;-1.27;68.95;100271.05;109121;1277;138338;-58
2022/02/15 02:59:07;;;;;;;11.50;5.90;;;;;;;-1.29;68.90;100264.54;109266;1277;22480;-57
2022/02/15 03:01:35;;;;;;;11.80;6.30;;;;;;;-1.25;68.95;100269.79;109177;1277;137267;-60
2022/02/15 03:04:05;;;;;;;11.20;6.40;;;;;;;-1.24;69.05;100272.01;109241;1277;22400;-57
2022/02/15 03:06:33;;;;;;;12.80;6.50;;;;;;;-1.27;68.88;100268.79;109096;1277;137964;-59
2022/02/15 03:09:01;;;;;;;12.30;5.60;;;;;;;-1.26;68.68;100270.82;109222;1276;22708;-57
2022/02/15 03:11:30;;;;;;;13.50;6.60;;;;;;;-1.27;68.74;100272.36;109282;1276;22465;-57
2022/02/15 03:13:59;;;;;;;13.50;6.00;;;;;;;-1.28;68.75;100274.63;109194;1276;139152;-57
2022/02/15 03:16:36;;;;;;;11.30;5.80;;;;;;;-1.29;68.62;100271.67;109274;1276;22450;-57
2022/02/15 03:19:04;;;;;;;12.40;6.40;;;;;;;-1.30;68.54;100273.10;109075;1277;138520;-57
2022/02/15 03:21:32;;;;;;;12.00;6.30;;;;;;;-1.32;68.45;100268.62;109278;1276;22441;-60
2022/02/15 03:24:00;;;;;;;9.00;5.40;;;;;;;-1.33;68.46;100271.35;109115;1277;22473;-57
2022/02/15 03:26:30;;;;;;;13.80;5.80;;;;;;;-1.34;68.52;100266.34;109158;1276;138147;-57
2022/02/15 03:28:58;;;;;;;11.20;5.60;;;;;;;-1.35;68.68;100269.84;109212;1277;22491;-57
2022/02/15 03:31:26;;;;;;;12.40;5.60;;;;;;;-1.37;68.54;100267.96;109015;1277;138174;-57
2022/02/15 03:33:56;;;;;;;12.40;5.40;;;;;;;-1.39;69.03;100268.89;109158;1277;22549;-57
2022/02/15 03:36:24;;;;;;;10.10;5.30;;;;;;;-1.42;68.74;100267.20;109074;1277;139688;-57
2022/02/15 03:39:05;;;;;;;9.70;5.40;;;;;;;-1.44;68.90;100267.23;109050;1277;22448;-60
2022/02/15 03:44:23;;;;;;;13.10;5.80;;;;;;;-1.48;69.01;100267.64;109039;1277;140230;-58
2022/02/15 03:46:54;;;;;;;10.30;5.70;;;;;;;-1.48;69.51;100273.88;109225;1277;23485;-58
2022/02/15 03:49:24;;;;;;;11.50;5.90;;;;;;;-1.48;69.39;100274.08;109118;1277;139672;-57
2022/02/15 03:51:53;;;;;;;10.70;6.00;;;;;;;-1.50;69.61;100277.11;109207;1277;23582;-58
2022/02/15 03:54:22;;;;;;;13.30;6.50;;;;;;;-1.52;69.65;100278.63;109098;1277;138275;-58
2022/02/15 03:56:51;;;;;;;14.70;7.00;;;;;;;-1.53;69.66;100277.13;109401;1274;22450;-58
2022/02/15 03:59:19;;;;;;;15.30;5.80;;;;;;;-1.55;69.72;100272.10;109360;1274;22480;-58
2022/02/15 04:01:48;;;;;;;12.30;5.80;;;;;;;-1.55;69.95;100271.98;109143;1274;139361;-58
2022/02/15 04:04:16;;;;;;;9.20;5.50;;;;;;;-1.58;69.74;100272.46;109274;1275;22485;-58
2022/02/15 04:06:44;;;;;;;10.60;5.80;;;;;;;-1.60;69.99;100271.77;109217;1274;137574;-58
2022/02/15 04:09:12;;;;;;;10.60;5.80;;;;;;;-1.62;70.08;100273.46;109259;1274;22472;-58
2022/02/15 04:11:42;;;;;;;10.40;4.90;;;;;;;-1.64;70.15;100276.86;109375;1274;22466;-58
2022/02/15 04:14:11;;;;;;;10.50;5.50;;;;;;;-1.66;70.20;100277.58;109151;1277;137363;-58
2022/02/15 04:16:39;;;;;;;9.70;5.40;;;;;;;-1.68;70.18;100273.41;109394;1274;22498;-58
2022/02/15 04:19:10;;;;;;;13.50;6.50;;;;;;;-1.71;70.35;100280.22;109274;1274;137953;-58
2022/02/15 04:21:38;;;;;;;9.70;4.90;;;;;;;-1.72;70.16;100283.58;109387;1274;22606;-58
2022/02/15 04:24:06;;;;;;;10.70;5.30;;;;;;;-1.73;70.50;100279.46;109391;1274;22377;-59
2022/02/15 04:26:35;;;;;;;10.20;5.40;;;;;;;-1.74;70.55;100281.90;109231;1274;139622;-58
2022/02/15 04:29:04;;;;;;;16.20;6.10;;;;;;;-1.75;70.70;100282.33;109388;1274;23870;-58
2022/02/15 04:31:39;;;;;;;11.00;6.00;;;;;;;-1.78;70.61;100277.46;109310;1274;138290;-58
2022/02/15 04:34:08;;;;;;;10.50;5.70;;;;;;;-1.76;70.67;100284.33;109413;1274;22568;-58
2022/02/15 04:36:36;;;;;;;11.50;6.00;;;;;;;-1.75;70.76;100279.86;109148;1274;139270;-58
2022/02/15 04:39:06;;;;;;;11.30;5.70;;;;;;;-1.75;70.65;100279.99;109326;1274;22440;-51
2022/02/15 04:41:37;;;;;;;10.50;5.70;;;;;;;-1.75;70.68;100284.13;109287;1274;23379;-58
2022/02/15 04:44:10;;;;;;;10.60;5.40;;;;;;;-1.75;70.48;100287.53;109247;1274;138443;-58
2022/02/15 04:46:39;;;;;;;10.70;5.20;;;;;;;-1.77;70.48;100286.23;109257;1274;22565;-59
2022/02/15 04:49:07;;;;;;;12.60;5.90;;;;;;;-1.80;70.45;100286.91;109278;1272;138686;-58
2022/02/15 04:51:35;;;;;;;9.10;5.20;;;;;;;-1.83;70.26;100288.11;109405;1274;22476;-59
2022/02/15 04:54:04;;;;;;;17.00;7.90;;;;;;;-1.86;70.22;100289.56;109326;1274;22438;-58
2022/02/15 04:56:32;;;;;;;27.80;13.70;;;;;;;-1.86;70.34;100291.06;109176;1274;140338;-58
2022/02/15 04:59:01;;;;;;;18.10;9.60;;;;;;;-1.88;70.28;100290.91;109404;1274;22477;-58
2022/02/15 05:01:29;;;;;;;15.80;8.50;;;;;;;-1.89;70.06;100292.98;109259;1274;137570;-58
2022/02/15 05:04:48;;;;;;;16.40;8.40;;;;;;;-1.90;69.95;100295.23;109393;1274;22476;-58
2022/02/15 05:06:54;;;;;;;11.90;7.80;;;;;;;-1.90;69.85;100292.20;109354;1273;138018;-58
2022/02/15 05:09:22;;;;;;;16.90;9.80;;;;;;;-1.88;70.00;100296.15;109460;1273;22420;-58
2022/02/15 05:11:50;;;;;;;18.20;8.20;;;;;;;-1.86;69.81;100296.45;109437;1274;22498;-57
2022/02/15 05:14:21;;;;;;;16.10;8.40;;;;;;;-1.85;69.73;100296.81;109229;1274;138293;-58
2022/02/15 05:16:50;;;;;;;11.60;6.20;;;;;;;-1.83;69.75;100298.96;109408;1274;22435;-58
2022/02/15 05:19:21;;;;;;;16.70;8.10;;;;;;;-1.81;69.82;100303.66;109233;1272;139326;-58
2022/02/15 05:21:54;;;;;;;16.20;8.10;;;;;;;-1.78;69.68;100303.21;109418;1274;22522;-58
2022/02/15 05:24:23;;;;;;;15.00;8.20;;;;;;;-1.75;69.69;100303.92;109214;1274;138062;-59
2022/02/15 05:27:00;;;;;;;15.70;8.70;;;;;;;-1.74;69.66;100303.96;109311;1274;22497;-59
2022/02/15 05:29:32;;;;;;;15.90;9.10;;;;;;;-1.75;69.57;100305.77;109308;1274;23474;-58
2022/02/15 05:32:28;;;;;;;11.40;6.90;;;;;;;-1.74;69.48;100307.67;109135;1275;137857;-58
2022/02/15 05:34:59;;;;;;;16.90;9.10;;;;;;;-1.74;69.44;100315.73;109314;1274;22458;-58
2022/02/15 05:37:29;;;;;;;20.50;9.50;;;;;;;-1.75;69.48;100314.91;109138;1274;137547;-58
2022/02/15 05:39:57;;;;;;;13.40;7.20;;;;;;;-1.75;69.52;100318.09;109310;1274;23224;-58
2022/02/15 05:42:36;;;;;;;16.80;8.40;;;;;;;-1.75;69.40;100321.86;109280;1274;137628;-58
2022/02/15 05:45:04;;;;;;;11.70;7.90;;;;;;;-1.78;69.48;100323.04;109189;1276;22472;-58
2022/02/15 05:47:34;;;;;;;15.10;7.90;;;;;;;-1.78;69.39;100325.84;109275;1274;23359;-59
2022/02/15 05:52:49;;;;;;;12.00;7.10;;;;;;;-1.78;69.78;100325.28;109375;1274;22474;-58
2022/02/15 05:55:18;;;;;;;12.80;7.60;;;;;;;-1.75;69.66;100324.84;109078;1277;137667;-59
2022/02/15 05:57:46;;;;;;;15.50;8.40;;;;;;;-1.74;69.76;100323.63;109385;1274;22257;-59
2022/02/15 06:00:15;;;;;;;14.40;7.20;;;;;;;-1.72;69.82;100322.39;109241;1275;22453;-59
2022/02/15 06:02:47;;;;;;;14.80;6.90;;;;;;;-1.68;69.87;100321.44;109156;1274;138361;-59
2022/02/15 06:05:18;;;;;;;17.20;9.10;;;;;;;-1.65;69.93;100322.17;109278;1274;22448;-59
2022/02/15 06:07:50;;;;;;;16.50;9.30;;;;;;;-1.61;69.98;100324.04;109193;1274;139016;-59
2022/02/15 06:10:26;;;;;;;19.40;10.30;;;;;;;-1.55;70.09;100323.98;109235;1274;22468;-59
2022/02/15 06:12:58;;;;;;;17.10;10.30;;;;;;;-1.51;69.90;100327.67;109256;1274;139083;-59
2022/02/15 06:15:30;;;;;;;24.70;15.10;;;;;;;-1.46;69.84;100323.41;109406;1274;22452;-59
2022/02/15 06:18:10;;;;;;;19.60;11.40;;;;;;;-1.42;69.58;100322.25;109239;1274;23251;-59
2022/02/15 06:20:43;;;;;;;15.80;9.80;;;;;;;-1.38;69.58;100323.78;109216;1274;138026;-58
2022/02/15 06:23:11;;;;;;;19.20;11.70;;;;;;;-1.33;69.50;100324.54;109289;1274;22477;-59
2022/02/15 06:25:39;;;;;;;20.60;11.40;;;;;;;-1.29;69.42;100327.29;109290;1274;137719;-59
2022/02/15 06:28:07;;;;;;;46.60;23.70;;;;;;;-1.25;69.29;100327.06;109341;1274;23351;-59
2022/02/15 06:30:44;;;;;;;19.60;11.20;;;;;;;-1.20;69.16;100322.21;109291;1274;140146;-59
2022/02/15 06:33:34;;;;;;;25.40;13.00;;;;;;;-1.15;69.06;100319.00;109401;1274;22568;-59
2022/02/15 06:36:03;;;;;;;18.00;8.40;;;;;;;-1.13;68.78;100319.98;109325;1274;22404;-59
2022/02/15 06:38:32;;;;;;;15.60;8.10;;;;;;;-1.10;68.70;100316.45;109247;1273;139368;-58
2022/02/15 06:41:13;;;;;;;11.90;7.60;;;;;;;-1.07;68.47;100313.48;109291;1274;22487;-59
2022/02/15 06:43:58;;;;;;;16.80;7.30;;;;;;;-1.01;68.53;100314.20;109173;1274;137900;-58
2022/02/15 06:46:33;;;;;;;13.80;7.50;;;;;;;-0.96;68.60;100315.93;109389;1274;22402;-59
2022/02/15 06:49:04;;;;;;;14.10;7.50;;;;;;;-0.92;68.28;100310.34;109086;1274;137566;-59
2022/02/15 06:51:33;;;;;;;15.60;7.30;;;;;;;-0.87;68.08;100313.32;109145;1274;22513;-59
2022/02/15 06:54:12;;;;;;;15.60;8.60;;;;;;;-0.81;67.73;100314.66;109239;1274;22227;-59
2022/02/15 06:56:50;;;;;;;15.00;7.30;;;;;;;-0.76;67.67;100316.98;109262;1274;139163;-59
2022/02/15 06:59:26;;;;;;;14.10;7.30;;;;;;;-0.71;67.76;100315.97;109395;1274;22507;-59
2022/02/15 07:01:55;;;;;;;15.80;7.70;;;;;;;-0.65;67.66;100316.11;109194;1275;139378;-59
2022/02/15 07:04:25;;;;;;;12.10;6.20;;;;;;;-0.59;67.59;100318.34;109361;1274;22479;-59
2022/02/15 07:06:58;;;;;;;13.70;6.60;;;;;;;-0.53;67.25;100319.80;109207;1274;137955;-59
2022/02/15 07:09:26;;;;;;;18.50;8.80;;;;;;;-0.47;67.33;100313.02;109339;1274;22449;-59
2022/02/15 07:12:10;;;;;;;12.40;7.50;;;;;;;-0.39;66.82;100312.90;109399;1274;22399;-59
2022/02/15 07:14:59;;;;;;;13.10;7.10;;;;;;;-0.32;66.81;100311.41;109330;1274;138707;-59
2022/02/15 07:17:48;;;;;;;14.60;7.70;;;;;;;-0.25;66.91;100310.45;109427;1274;22631;-59
2022/02/15 07:20:21;;;;;;;16.30;8.40;;;;;;;-0.20;66.69;100306.63;109298;1274;138917;-59
2022/02/15 07:23:15;;;;;;;14.00;7.10;;;;;;;-0.15;66.49;100307.94;109154;1274;22280;-59
2022/02/15 07:26:06;;;;;;;16.30;8.30;;;;;;;-0.13;66.40;100304.58;109310;1274;139023;-59
2022/02/15 07:28:52;;;;;;;18.90;9.50;;;;;;;-0.04;66.52;100307.05;109359;1274;22434;-59
2022/02/15 07:31:20;;;;;;;15.80;8.80;;;;;;;0.02;66.25;100305.52;109122;1274;139041;-59
2022/02/15 07:33:52;;;;;;;17.90;9.00;;;;;;;0.07;66.39;100306.19;109394;1273;23202;-59
2022/02/15 07:36:20;;;;;;;18.30;8.40;;;;;;;0.12;66.16;100300.95;109367;1274;22425;-59
2022/02/15 07:38:48;;;;;;;19.40;9.00;;;;;;;0.17;65.80;100297.67;109309;1274;137716;-59
2022/02/15 07:41:16;;;;;;;13.50;7.60;;;;;;;0.22;66.10;100295.66;109461;1273;22558;-59
2022/02/15 07:43:44;;;;;;;14.70;7.80;;;;;;;0.27;65.91;100289.09;109359;1274;139472;-58
2022/02/15 07:46:17;;;;;;;15.70;7.50;;;;;;;0.33;65.86;100289.05;109375;1274;22556;-59
2022/02/15 07:48:45;;;;;;;14.20;8.20;;;;;;;0.41;65.46;100284.85;109298;1274;138793;-59
2022/02/15 07:51:12;;;;;;;18.90;8.60;;;;;;;0.46;64.95;100284.54;109459;1274;24458;-59
2022/02/15 07:53:41;;;;;;;17.20;8.50;;;;;;;0.50;65.13;100285.73;109462;1274;22486;-59
2022/02/15 07:56:09;;;;;;;18.60;9.20;;;;;;;0.53;64.75;100285.39;109324;1272;139308;-58
2022/02/15 07:58:38;;;;;;;18.90;8.90;;;;;;;0.58;64.92;100281.91;109454;1271;22560;-59
2022/02/15 08:01:06;;;;;;;17.40;8.70;;;;;;;0.64;64.71;100280.20;109337;1274;139046;-59
2022/02/15 08:03:35;;;;;;;16.80;9.30;;;;;;;0.71;64.76;100277.63;109450;1274;22497;-59
2022/02/15 08:06:04;;;;;;;23.20;13.00;;;;;;;0.77;64.57;100276.91;109403;1274;22424;-59
2022/02/15 08:08:32;;;;;;;29.60;14.10;;;;;;;0.83;64.54;100277.70;109326;1273;138584;-59
2022/02/15 08:11:00;;;;;;;24.40;12.10;;;;;;;0.88;64.14;100275.31;109447;1273;22455;-59
2022/02/15 08:13:34;;;;;;;26.20;13.80;;;;;;;0.93;64.41;100276.52;109327;1273;138172;-59
2022/02/15 08:16:03;;;;;;;19.60;9.50;;;;;;;0.96;64.25;100275.40;109440;1274;22566;-59
2022/02/15 08:18:31;;;;;;;17.30;9.20;;;;;;;1.00;64.20;100277.42;109436;1272;22473;-59
2022/02/15 08:20:59;;;;;;;13.10;8.50;;;;;;;1.04;64.01;100279.33;109373;1274;138245;-59
2022/02/15 08:23:27;;;;;;;13.70;8.40;;;;;;;1.08;64.08;100275.48;109461;1274;23336;-59
2022/02/15 08:25:55;;;;;;;13.00;8.10;;;;;;;1.12;63.95;100275.67;109363;1272;138339;-59
2022/02/15 08:28:24;;;;;;;16.50;7.30;;;;;;;1.17;63.72;100271.33;109463;1273;22471;-59
2022/02/15 08:30:52;;;;;;;13.60;7.00;;;;;;;1.21;63.77;100266.94;109330;1273;139280;-59
2022/02/15 08:33:21;;;;;;;15.30;7.90;;;;;;;1.30;63.76;100265.55;109449;1273;22551;-59
2022/02/15 08:35:49;;;;;;;13.60;7.40;;;;;;;1.35;63.88;100262.93;109483;1273;22435;-59
2022/02/15 08:38:17;;;;;;;11.20;7.40;;;;;;;1.44;63.65;100261.23;109324;1273;139172;-59
2022/02/15 08:40:45;;;;;;;13.90;6.90;;;;;;;1.50;63.47;100258.43;109441;1274;27910;-53
2022/02/15 08:43:24;;;;;;;13.00;6.80;;;;;;;1.58;63.70;100255.42;109343;1273;138369;-53
2022/02/15 08:45:52;;;;;;;10.80;6.50;;;;;;;1.66;63.47;100256.08;109447;1273;23438;-54
2022/02/15 08:48:20;;;;;;;12.10;6.50;;;;;;;1.73;63.40;100257.31;109450;1273;22537;-53
2022/02/15 08:50:48;;;;;;;14.10;9.00;;;;;;;1.81;63.23;100257.31;109350;1274;139022;-53
2022/02/15 08:53:17;;;;;;;25.30;14.70;;;;;;;1.88;62.97;100256.05;109455;1271;23202;-53
2022/02/15 08:55:45;;;;;;;26.60;16.20;;;;;;;1.94;62.98;100255.90;109331;1273;137912;-53
2022/02/15 08:58:13;;;;;;;15.40;7.70;;;;;;;2.01;62.81;100259.73;109446;1273;22421;-53
2022/02/15 09:00:41;;;;;;;14.90;7.40;;;;;;;2.07;62.49;100257.73;109324;1274;138371;-53
2022/02/15 09:03:09;;;;;;;13.10;6.80;;;;;;;2.13;62.52;100255.77;109467;1274;23159;-54
2022/02/15 09:05:37;;;;;;;12.00;6.20;;;;;;;2.19;62.28;100254.23;109416;1273;23373;-54
2022/02/15 09:08:05;;;;;;;14.00;7.50;;;;;;;2.25;61.97;100250.05;109349;1274;137237;-53
2022/02/15 09:10:37;;;;;;;13.10;5.30;;;;;;;2.34;61.62;100254.47;109423;1272;23265;-53
2022/02/15 09:13:05;;;;;;;9.10;5.20;;;;;;;2.41;61.52;100253.08;109309;1271;138393;-53
2022/02/15 09:15:33;;;;;;;8.30;5.20;;;;;;;2.45;61.75;100248.94;109381;1274;22452;-53
2022/02/15 09:18:02;;;;;;;12.20;5.50;;;;;;;2.56;61.47;100250.63;109447;1274;22481;-54
2022/02/15 09:20:31;;;;;;;7.50;4.40;;;;;;;2.65;61.01;100250.22;109294;1273;137654;-53
2022/02/15 09:22:59;;;;;;;9.30;4.10;;;;;;;2.73;60.55;100243.46;109456;1274;22536;-54
2022/02/15 09:25:27;;;;;;;7.90;3.80;;;;;;;2.80;59.92;100239.89;109345;1274;138450;-54
2022/02/15 09:27:55;;;;;;;5.80;3.40;;;;;;;2.85;59.68;100240.61;109457;1272;22437;-54
2022/02/15 09:30:23;;;;;;;7.20;3.50;;;;;;;2.91;58.96;100241.95;109462;1274;22469;-54
2022/02/15 09:32:51;;;;;;;9.10;3.40;;;;;;;2.95;58.49;100235.61;109351;1272;137611;-53
2022/02/15 09:35:19;;;;;;;7.30;3.90;;;;;;;2.96;58.24;100234.64;109442;1273;23271;-53
2022/02/15 09:37:47;;;;;;;7.10;3.80;;;;;;;3.00;57.79;100236.71;109317;1274;138057;-53
2022/02/15 09:40:15;;;;;;;7.70;4.20;;;;;;;3.00;57.85;100231.13;109465;1274;22247;-59
2022/02/15 09:42:43;;;;;;;8.20;4.30;;;;;;;3.05;57.62;100224.91;109303;1272;137695;-59
2022/02/15 09:45:11;;;;;;;5.50;3.50;;;;;;;3.09;57.48;100222.17;109358;1274;23299;-59
2022/02/15 09:47:41;;;;;;;5.30;3.30;;;;;;;3.12;57.31;100224.04;109482;1274;22402;-59
2022/02/15 09:50:09;;;;;;;10.30;4.10;;;;;;;3.15;57.23;100214.54;109330;1274;138233;-59
2022/02/15 09:52:45;;;;;;;8.20;3.90;;;;;;;3.20;57.20;100216.23;109456;1273;22480;-59
2022/02/15 09:55:15;;;;;;;11.60;4.40;;;;;;;3.25;56.82;100212.80;109335;1274;138196;-59
2022/02/15 09:57:43;;;;;;;9.40;4.50;;;;;;;3.27;56.94;100211.08;109443;1274;22469;-59
2022/02/15 10:00:12;;;;;;;11.90;4.40;;;;;;;3.32;56.73;100207.59;109456;1274;22475;-59
2022/02/15 10:02:40;;;;;;;13.30;5.70;;;;;;;3.36;56.56;100208.09;109341;1273;137011;-59
2022/02/15 10:05:13;;;;;;;7.80;3.70;;;;;;;3.39;56.40;100202.19;109433;1274;23471;-59
2022/02/15 10:07:56;;;;;;;12.70;6.80;;;;;;;3.42;56.55;100199.27;109341;1273;137177;-59
2022/02/15 10:10:32;;;;;;;14.90;7.40;;;;;;;3.44;56.55;100198.27;109437;1274;22598;-59
2022/02/15 10:13:09;;;;;;;9.40;4.70;;;;;;;3.47;56.76;100193.70;109332;1274;138603;-59
2022/02/15 10:15:39;;;;;;;14.60;8.10;;;;;;;3.53;56.43;100191.39;109466;1273;22414;-59
2022/02/15 10:18:10;;;;;;;17.70;9.90;;;;;;;3.56;56.58;100185.41;109477;1274;22576;-59
2022/02/15 10:20:43;;;;;;;14.30;5.10;;;;;;;3.61;56.23;100187.39;109211;1274;138818;-59
2022/02/15 10:23:19;;;;;;;7.80;5.20;;;;;;;3.64;55.77;100185.21;109312;1275;22450;-59
2022/02/15 10:25:48;;;;;;;6.80;4.30;;;;;;;3.64;55.42;100180.77;109246;1274;138285;-59
2022/02/15 10:28:20;;;;;;;9.10;4.10;;;;;;;3.64;55.44;100179.90;109431;1271;22452;-59
2022/02/15 10:30:55;;;;;;;8.50;4.30;;;;;;;3.65;55.70;100180.54;109306;1274;137337;-59
2022/02/15 10:33:30;;;;;;;6.00;3.40;;;;;;;3.67;55.46;100178.81;109162;1274;22445;-59
2022/02/15 10:36:01;;;;;;;7.70;3.80;;;;;;;3.69;55.40;100174.06;109321;1274;22267;-59
2022/02/15 10:38:30;;;;;;;5.20;3.10;;;;;;;3.71;55.15;100168.36;109291;1274;138685;-59
2022/02/15 10:41:21;;;;;;;6.70;3.70;;;;;;;3.73;54.95;100170.52;109351;1274;22667;-54
2022/02/15 10:43:51;;;;;;;8.20;4.10;;;;;;;3.74;55.11;100163.45;109287;1274;137629;-54
2022/02/15 10:46:22;;;;;;;15.80;7.10;;;;;;;3.76;54.70;100162.31;109395;1274;22500;-53
2022/02/15 10:48:52;;;;;;;8.90;4.80;;;;;;;3.79;54.46;100156.58;109254;1275;138243;-53
2022/02/15 10:51:23;;;;;;;8.60;4.20;;;;;;;3.80;54.30;100158.61;109432;1274;22398;-54
2022/02/15 10:53:59;;;;;;;8.50;3.70;;;;;;;3.81;54.80;100154.60;109376;1274;22443;-54
2022/02/15 10:56:31;;;;;;;5.60;3.40;;;;;;;3.84;54.69;100152.52;109242;1276;137566;-54
2022/02/15 10:59:01;;;;;;;7.50;3.90;;;;;;;3.87;55.13;100143.98;109406;1274;22335;-53
2022/02/15 11:01:30;;;;;;;11.30;3.90;;;;;;;3.90;54.52;100139.80;109194;1274;138452;-54
2022/02/15 11:03:58;;;;;;;8.40;4.00;;;;;;;3.90;54.23;100136.94;109389;1274;23264;-54
2022/02/15 11:06:46;;;;;;;9.40;4.40;;;;;;;3.90;54.11;100128.97;109164;1274;139000;-54
2022/02/15 11:09:15;;;;;;;7.30;3.90;;;;;;;3.93;54.57;100128.36;109383;1274;22468;-54
2022/02/15 11:12:05;;;;;;;9.50;4.10;;;;;;;3.96;54.42;100129.18;109275;1274;23677;-55
2022/02/15 11:14:36;;;;;;;8.70;3.90;;;;;;;4.00;54.35;100129.58;109124;1274;230510;-54
2022/02/15 11:17:46;;;;;;;6.60;3.40;;;;;;;4.04;54.14;100127.27;101856;1309;545945;-51
2022/02/15 11:20:16;;;;;;;9.30;4.00;;;;;;;4.02;53.60;100126.77;103848;1286;138144;-57
2022/02/15 11:22:48;;;;;;;6.40;3.20;;;;;;;4.03;53.49;100124.36;108159;1287;22583;-53
2022/02/15 11:25:30;;;;;;;7.10;3.50;;;;;;;4.03;53.67;100123.29;108313;1284;138308;-53
2022/02/15 11:28:13;;;;;;;12.30;5.40;;;;;;;4.02;53.92;100125.82;108450;1284;23589;-52
2022/02/15 11:30:46;;;;;;;11.80;5.10;;;;;;;4.04;53.69;100121.55;108270;1282;207700;-54
2022/02/15 11:33:22;;;;;;;8.90;4.60;;;;;;;4.05;53.69;100128.38;108700;1281;22246;-53